Aviation Digital Data Service (ADDS)

Output produced by METARs form (0011 UTC 26 June 2017)
found at http://aviationweather.gov/adds/metars/
 
KERI 252339Z 2600/2624 27010G20KT P6SM BKN080 
     FM260400 25010KT P6SM BKN100 
     FM261000 23010KT P6SM VCSH BKN050 
     FM261200 25012G22KT P6SM -SHRA OVC050 
     TEMPO 2613/2617 4SM -TSRA OVC040CB 
     FM261800 27015G25KT P6SM BKN060